< < Back
Terminal Aerodrome Forecast


Current Version              Previous Versions:   1  2  3  4  5  6  7  8  9  

Terminal Aerodrome Forecast

607
FTUS42 KMLB 251513 AAA
TAFMCO
TAF AMD
KMCO 251513Z 2515/2612 19010KT P6SM FEW019 BKN070 OVC300
     FM251900 26013G20KT P6SM VCTS SCT035CB BKN060
     FM260000 23008KT P6SM SCT060 BKN200=

Latest METAR

872
SAUS70 KWBC 251600 RRM
MTRMCO
METAR KMCO 251553Z 21009KT 10SM FEW020 BKN065 OVC300 29/22 A2995 RMK AO2
SLP141 T02890222


USA.gov is the U.S. government's official web portal to all federal, state and local government web resources and services.